createdAt,value
2022-08-29T00:01:52.584Z,23.68
2022-08-29T00:04:39.644Z,23.61
2022-08-29T00:07:19.662Z,23.56
2022-08-29T00:10:06.499Z,23.59
2022-08-29T00:12:46.655Z,23.68
2022-08-29T00:15:35.131Z,23.64
2022-08-29T00:18:26.627Z,23.72
2022-08-29T00:21:13.500Z,23.75
2022-08-29T00:24:00.505Z,23.76
2022-08-29T00:26:41.051Z,23.76
2022-08-29T00:29:27.503Z,23.74
2022-08-29T00:32:08.227Z,23.62
2022-08-29T00:34:54.530Z,23.59
2022-08-29T00:37:41.523Z,23.56
2022-08-29T00:40:25.672Z,23.59
2022-08-29T00:43:13.487Z,23.60
2022-08-29T00:46:02.669Z,23.41
2022-08-29T00:48:53.491Z,23.40
2022-08-29T00:51:41.520Z,23.28
2022-08-29T00:54:22.711Z,23.12
2022-08-29T00:57:10.522Z,23.06
2022-08-29T00:59:51.967Z,22.95
2022-08-29T01:02:40.441Z,22.94
2022-08-29T01:05:22.505Z,22.94
2022-08-29T01:08:09.482Z,22.89
2022-08-29T01:11:09.842Z,22.87
2022-08-29T01:13:58.496Z,22.81
2022-08-29T01:16:39.361Z,22.70
2022-08-29T01:19:58.466Z,22.59
2022-08-29T01:23:01.044Z,22.57
2022-08-29T01:25:52.493Z,22.46
2022-08-29T01:28:49.454Z,22.42
2022-08-29T01:31:57.481Z,22.30
2022-08-29T01:34:44.467Z,22.26
2022-08-29T01:37:37.435Z,22.18
2022-08-29T01:40:25.472Z,22.11
2022-08-29T01:43:12.494Z,21.95
2022-08-29T01:45:52.595Z,21.90
2022-08-29T01:48:39.405Z,21.82
2022-08-29T01:51:20.590Z,21.77
2022-08-29T01:54:07.416Z,21.73
2022-08-29T01:56:52.161Z,21.69
2022-08-29T01:59:39.419Z,21.81
2022-08-29T02:02:36.434Z,21.68
2022-08-29T02:05:18.052Z,21.62
2022-08-29T02:08:04.422Z,21.58
2022-08-29T02:10:51.403Z,21.55
2022-08-29T02:13:38.412Z,21.54
2022-08-29T02:16:25.433Z,21.48
2022-08-29T02:19:06.514Z,21.52
2022-08-29T02:21:53.423Z,21.50
2022-08-29T02:24:33.596Z,21.47
2022-08-29T02:27:20.377Z,21.48
2022-08-29T02:30:14.418Z,21.49
2022-08-29T02:33:01.365Z,21.49
2022-08-29T02:35:51.385Z,21.41
2022-08-29T02:38:32.407Z,21.38
2022-08-29T02:41:14.362Z,21.41
2022-08-29T02:44:01.356Z,21.39
2022-08-29T02:46:48.394Z,21.40
2022-08-29T02:49:28.499Z,21.33
2022-08-29T02:52:17.387Z,21.30
2022-08-29T02:54:57.489Z,21.29
2022-08-29T02:57:44.388Z,21.33
2022-08-29T03:00:28.568Z,21.32
2022-08-29T03:03:15.360Z,21.24
2022-08-29T03:05:56.749Z,21.28
2022-08-29T03:26:10.447Z,20.76
2022-08-29T03:28:57.532Z,20.90
2022-08-29T03:31:38.511Z,21.04
2022-08-29T03:34:25.459Z,21.13
2022-08-29T03:37:06.442Z,21.27
2022-08-29T03:39:46.759Z,21.37
2022-08-29T03:42:33.419Z,21.46
2022-08-29T03:45:18.670Z,21.53
2022-08-29T03:48:05.439Z,21.59
2022-08-29T03:50:56.302Z,21.69
2022-08-29T03:53:43.460Z,21.83
2022-08-29T03:56:31.445Z,21.82
2022-08-29T03:59:13.557Z,21.86
2022-08-29T04:02:00.504Z,21.90
2022-08-29T04:04:59.597Z,22.00
2022-08-29T04:07:51.418Z,22.03
2022-08-29T04:10:38.108Z,22.15
2022-08-29T04:13:26.400Z,22.23
2022-08-29T04:16:22.645Z,22.30
2022-08-29T04:19:02.409Z,22.52
2022-08-29T04:21:44.857Z,22.86
2022-08-29T04:24:31.385Z,23.10
2022-08-29T04:27:18.418Z,23.35
2022-08-29T04:29:58.543Z,23.77
2022-08-29T04:32:45.426Z,24.17
2022-08-29T04:35:32.381Z,24.75
2022-08-29T04:38:12.918Z,25.23
2022-08-29T04:41:00.381Z,25.70
2022-08-29T04:43:46.087Z,26.24
2022-08-29T04:46:32.437Z,26.70
2022-08-29T04:49:19.470Z,26.98
2022-08-29T04:52:00.474Z,27.20
2022-08-29T04:54:47.391Z,27.34
2022-08-29T04:57:27.555Z,27.61
2022-08-29T05:00:21.385Z,28.31
2022-08-29T05:03:01.502Z,28.15
2022-08-29T05:05:48.370Z,28.83
2022-08-29T05:08:28.460Z,29.42
2022-08-29T05:11:23.328Z,29.58
2022-08-29T05:14:04.495Z,29.98
2022-08-29T05:16:51.313Z,30.46
2022-08-29T05:19:34.688Z,30.87
2022-08-29T05:22:25.325Z,31.43
2022-08-29T05:25:19.389Z,31.84
2022-08-29T05:27:59.966Z,32.01
2022-08-29T05:30:46.399Z,31.75
2022-08-29T05:33:34.330Z,32.23
2022-08-29T05:36:21.312Z,32.42
2022-08-29T05:39:08.348Z,33.36
2022-08-29T05:42:00.347Z,33.34
2022-08-29T05:44:47.362Z,31.54
2022-08-29T05:47:35.318Z,30.69
2022-08-29T05:50:23.326Z,30.91
2022-08-29T05:53:10.319Z,30.41
2022-08-29T05:55:57.278Z,29.48
2022-08-29T05:58:44.334Z,28.83
2022-08-29T06:01:28.147Z,29.24
2022-08-29T06:04:15.319Z,29.16
2022-08-29T06:06:55.736Z,28.67
2022-08-29T06:09:42.278Z,28.95
2022-08-29T06:12:24.287Z,28.88
2022-08-29T06:15:11.282Z,29.35
2022-08-29T06:17:58.306Z,29.23
2022-08-29T06:20:38.520Z,29.79
2022-08-29T06:23:26.670Z,30.16
2022-08-29T06:26:23.292Z,30.04
2022-08-29T06:29:13.284Z,30.09
2022-08-29T06:31:53.431Z,31.20
2022-08-29T06:34:40.274Z,30.69
2022-08-29T06:37:20.360Z,31.07
2022-08-29T06:40:07.592Z,31.11
2022-08-29T06:42:47.443Z,30.97
2022-08-29T06:45:34.290Z,30.51
2022-08-29T06:48:15.465Z,30.37
2022-08-29T06:51:02.246Z,29.90
2022-08-29T06:53:49.298Z,30.73
2022-08-29T06:56:30.427Z,31.24
2022-08-29T06:59:18.268Z,31.26
2022-08-29T07:01:58.754Z,30.69
2022-08-29T07:04:45.252Z,31.56
2022-08-29T07:07:25.705Z,31.38
2022-08-29T07:10:12.213Z,31.81
2022-08-29T07:12:53.281Z,32.16
2022-08-29T07:15:40.369Z,33.46
2022-08-29T07:18:21.318Z,32.78
2022-08-29T07:21:08.243Z,31.98
2022-08-29T07:23:50.254Z,31.54
2022-08-29T07:26:48.273Z,31.98
2022-08-29T07:29:35.483Z,32.16
2022-08-29T07:32:15.238Z,31.81
2022-08-29T07:34:56.401Z,30.79
2022-08-29T07:37:45.727Z,30.44
2022-08-29T07:40:36.296Z,30.12
2022-08-29T07:43:27.775Z,29.33
2022-08-29T07:46:17.234Z,30.58
2022-08-29T07:48:57.318Z,31.11
2022-08-29T07:51:45.228Z,30.35
2022-08-29T07:54:25.886Z,30.57
2022-08-29T07:57:12.207Z,30.75
2022-08-29T07:59:52.265Z,30.85
2022-08-29T08:02:39.293Z,31.45
2022-08-29T08:05:26.198Z,31.77
2022-08-29T08:08:15.062Z,31.90
2022-08-29T08:11:02.201Z,32.03
2022-08-29T08:13:49.166Z,31.77
2022-08-29T08:16:31.486Z,32.05
2022-08-29T08:19:20.133Z,31.94
2022-08-29T08:22:00.789Z,32.13
2022-08-29T08:24:47.162Z,31.82
2022-08-29T08:27:27.290Z,31.70
2022-08-29T08:30:15.161Z,32.06
2022-08-29T08:33:02.164Z,32.31
2022-08-29T08:35:49.140Z,31.66
2022-08-29T08:38:36.154Z,31.04
2022-08-29T08:41:27.213Z,31.17
2022-08-29T08:44:12.353Z,31.81
2022-08-29T08:47:05.163Z,32.20
2022-08-29T08:50:05.126Z,32.57
2022-08-29T08:53:01.152Z,32.16
2022-08-29T08:55:57.262Z,32.22
2022-08-29T08:59:02.350Z,32.03
2022-08-29T09:01:55.300Z,32.86
2022-08-29T09:05:13.374Z,33.39
2022-08-29T09:08:06.375Z,33.20
2022-08-29T09:10:58.910Z,32.44
2022-08-29T09:14:10.135Z,32.47
2022-08-29T09:16:54.840Z,32.51
2022-08-29T09:19:42.107Z,32.54
2022-08-29T09:22:36.159Z,32.47
2022-08-29T09:25:28.175Z,32.61
2022-08-29T09:28:09.466Z,32.99
2022-08-29T09:31:16.751Z,33.48
2022-08-29T09:34:11.970Z,33.14
2022-08-29T09:36:55.827Z,31.91
2022-08-29T09:39:49.983Z,32.94
2022-08-29T09:42:40.224Z,33.12
2022-08-29T09:45:34.173Z,33.82
2022-08-29T09:48:21.306Z,34.00
2022-08-29T09:51:40.692Z,32.55
2022-08-29T09:54:31.979Z,32.31
2022-08-29T09:57:25.555Z,32.91
2022-08-29T10:00:27.351Z,33.89
2022-08-29T10:03:26.577Z,32.97
2022-08-29T10:06:14.466Z,32.82
2022-08-29T10:09:09.064Z,32.61
2022-08-29T10:12:14.430Z,33.87
2022-08-29T10:15:07.262Z,33.67
2022-08-29T10:18:51.371Z,33.41
2022-08-29T10:22:12.094Z,32.30
2022-08-29T10:25:12.237Z,31.96
2022-08-29T10:28:13.114Z,33.04
2022-08-29T10:31:37.135Z,32.80
2022-08-29T10:34:32.745Z,32.08
2022-08-29T10:37:37.633Z,32.12
2022-08-29T10:40:37.005Z,31.28
2022-08-29T10:43:30.519Z,31.73
2022-08-29T10:46:33.150Z,31.03
2022-08-29T10:49:49.018Z,30.59
2022-08-29T10:52:54.059Z,31.00
2022-08-29T10:55:37.127Z,31.26
2022-08-29T10:58:48.051Z,31.31
2022-08-29T11:01:48.976Z,31.07
2022-08-29T11:04:52.025Z,31.08
2022-08-29T11:08:04.008Z,32.08
2022-08-29T11:10:49.930Z,32.46
2022-08-29T11:13:47.005Z,32.25
2022-08-29T11:16:48.047Z,31.72
2022-08-29T11:19:53.026Z,30.33
2022-08-29T11:22:48.485Z,29.76
2022-08-29T11:25:36.010Z,28.90
2022-08-29T11:28:53.499Z,28.56
2022-08-29T11:31:55.085Z,27.82
2022-08-29T11:35:20.020Z,28.03
2022-08-29T11:38:24.107Z,27.91
2022-08-29T11:41:35.008Z,27.98
2022-08-29T11:44:57.411Z,27.90
2022-08-29T11:48:04.968Z,28.00
2022-08-29T11:50:53.006Z,27.93
2022-08-29T11:53:37.637Z,27.67
2022-08-29T11:56:28.190Z,27.08
2022-08-29T11:59:08.371Z,27.30
2022-08-29T12:01:55.154Z,27.54
2022-08-29T12:05:23.963Z,27.25
2022-08-29T12:08:33.607Z,27.40
2022-08-29T12:11:21.964Z,27.53
2022-08-29T12:14:06.331Z,27.84
2022-08-29T12:16:57.939Z,27.65
2022-08-29T12:20:17.123Z,27.24
2022-08-29T12:23:24.981Z,27.34
2022-08-29T12:26:32.233Z,27.26
2022-08-29T12:29:11.942Z,27.40
2022-08-29T12:32:23.080Z,27.15
2022-08-29T12:35:45.913Z,27.03
2022-08-29T12:38:56.910Z,26.99
2022-08-29T12:41:52.923Z,26.95
2022-08-29T12:44:43.871Z,27.06
2022-08-29T12:47:46.177Z,26.80
2022-08-29T12:50:35.810Z,26.59
2022-08-29T12:53:43.910Z,26.76
2022-08-29T12:56:32.898Z,26.96
2022-08-29T12:59:19.914Z,27.01
2022-08-29T13:02:00.944Z,26.87
2022-08-29T13:04:47.923Z,26.94
2022-08-29T13:07:29.696Z,27.05
2022-08-29T13:10:16.929Z,27.01
2022-08-29T13:13:09.079Z,26.94
2022-08-29T13:15:55.937Z,27.08
2022-08-29T13:19:07.269Z,27.19
2022-08-29T13:21:49.931Z,27.15
2022-08-29T13:24:36.869Z,27.09
2022-08-29T13:27:27.014Z,27.09
2022-08-29T13:30:07.871Z,27.08
2022-08-29T13:32:50.118Z,27.09
2022-08-29T13:35:45.995Z,27.03
2022-08-29T13:38:36.890Z,27.25
2022-08-29T13:41:23.895Z,27.36
2022-08-29T13:44:10.936Z,27.42
2022-08-29T13:46:51.561Z,27.28
2022-08-29T13:49:40.839Z,27.19
2022-08-29T13:52:31.601Z,27.26
2022-08-29T13:55:19.238Z,27.19
2022-08-29T13:58:01.829Z,27.29
2022-08-29T14:00:42.422Z,27.10
2022-08-29T14:03:30.026Z,27.03
2022-08-29T14:06:17.057Z,27.08
2022-08-29T14:08:57.871Z,26.91
2022-08-29T14:11:44.842Z,27.02
2022-08-29T14:14:25.039Z,27.31
2022-08-29T14:17:14.312Z,27.36
2022-08-29T14:20:04.885Z,27.13
2022-08-29T14:22:52.955Z,27.16
2022-08-29T14:25:32.834Z,26.96
2022-08-29T14:28:26.883Z,26.84
2022-08-29T14:31:07.411Z,26.85
2022-08-29T14:33:53.819Z,26.60
2022-08-29T14:36:34.979Z,26.69
2022-08-29T14:39:26.572Z,26.70
2022-08-29T14:42:07.353Z,26.64
2022-08-29T14:44:53.783Z,26.68
2022-08-29T14:47:40.790Z,26.59
2022-08-29T14:50:20.929Z,26.76
2022-08-29T14:53:07.929Z,26.83
2022-08-29T14:55:47.918Z,26.64
2022-08-29T14:58:34.873Z,26.49
2022-08-29T15:01:21.952Z,26.42
2022-08-29T15:04:08.897Z,26.42
2022-08-29T15:06:48.995Z,26.49
2022-08-29T15:09:35.792Z,26.39
2022-08-29T15:28:02.182Z,26.22
2022-08-29T15:30:49.274Z,26.22
2022-08-29T15:33:37.131Z,26.17
2022-08-29T15:36:24.184Z,26.17
2022-08-29T15:39:05.778Z,26.27
2022-08-29T15:41:52.311Z,26.28
2022-08-29T15:44:40.781Z,26.26
2022-08-29T15:47:27.326Z,26.14
2022-08-29T15:50:08.156Z,26.15
2022-08-29T15:52:48.510Z,26.09
2022-08-29T15:55:35.123Z,26.17
2022-08-29T15:58:22.130Z,26.10
2022-08-29T16:01:02.397Z,26.02
2022-08-29T16:03:50.301Z,25.98
2022-08-29T16:06:30.309Z,26.04
2022-08-29T16:09:18.134Z,25.96
2022-08-29T16:12:01.442Z,25.85
2022-08-29T16:15:06.582Z,25.85
2022-08-29T16:17:55.095Z,25.72
2022-08-29T16:20:37.948Z,25.70
2022-08-29T16:23:25.096Z,25.67
2022-08-29T16:26:12.074Z,25.72
2022-08-29T16:28:53.475Z,25.72
2022-08-29T16:31:41.179Z,25.71
2022-08-29T16:34:28.119Z,25.71
2022-08-29T16:37:08.942Z,25.60
2022-08-29T16:39:56.116Z,25.55
2022-08-29T16:42:55.655Z,25.51
2022-08-29T16:45:37.810Z,25.46
2022-08-29T16:48:25.396Z,25.45
2022-08-29T16:51:12.152Z,25.41
2022-08-29T16:54:00.597Z,25.44
2022-08-29T16:56:47.059Z,25.45
2022-08-29T16:59:34.052Z,25.41
2022-08-29T17:02:17.469Z,25.32
2022-08-29T17:05:04.014Z,25.32
2022-08-29T17:07:44.133Z,25.26
2022-08-29T17:10:31.131Z,25.23
2022-08-29T17:13:11.113Z,25.22
2022-08-29T17:15:58.143Z,25.27
2022-08-29T17:18:39.362Z,25.27
2022-08-29T17:21:26.040Z,25.29
2022-08-29T17:24:09.334Z,25.29
2022-08-29T17:26:56.056Z,25.26
2022-08-29T17:29:37.259Z,25.30
2022-08-29T17:32:24.023Z,25.30
2022-08-29T17:35:04.174Z,25.18
2022-08-29T17:37:51.034Z,25.18
2022-08-29T17:40:31.248Z,25.18
2022-08-29T17:43:19.998Z,25.19
2022-08-29T17:46:07.098Z,25.21
2022-08-29T17:48:55.053Z,25.21
2022-08-29T17:51:42.017Z,25.16
2022-08-29T17:54:24.200Z,25.13
2022-08-29T17:57:12.995Z,25.15
2022-08-29T17:59:53.640Z,25.13
2022-08-29T18:02:41.057Z,25.08
2022-08-29T18:05:27.973Z,25.01
2022-08-29T18:08:15.026Z,24.88
2022-08-29T18:11:01.979Z,24.80
2022-08-29T18:13:42.176Z,24.80
2022-08-29T18:16:29.056Z,24.77
2022-08-29T18:19:10.297Z,24.71
2022-08-29T18:21:57.973Z,24.72
2022-08-29T18:24:38.052Z,24.70
2022-08-29T18:27:24.985Z,24.74
2022-08-29T18:30:13.951Z,24.71
2022-08-29T18:33:01.020Z,24.69
2022-08-29T18:35:41.309Z,24.61
2022-08-29T18:38:28.015Z,24.58
2022-08-29T18:41:15.976Z,24.54
2022-08-29T18:43:56.697Z,24.48
2022-08-29T18:46:47.900Z,24.48
2022-08-29T18:49:46.779Z,24.41
2022-08-29T18:52:33.915Z,24.33
2022-08-29T18:55:20.956Z,24.34
2022-08-29T18:58:01.116Z,24.32
2022-08-29T19:00:49.077Z,24.30
2022-08-29T19:03:29.014Z,24.26
2022-08-29T19:06:16.962Z,24.24
2022-08-29T19:08:57.307Z,24.20
2022-08-29T19:11:43.934Z,24.26
2022-08-29T19:14:24.134Z,24.26
2022-08-29T19:17:10.908Z,24.24
2022-08-29T19:20:10.194Z,24.19
2022-08-29T19:22:56.897Z,24.19
2022-08-29T19:25:37.017Z,24.19
2022-08-29T19:28:25.892Z,24.23
2022-08-29T19:31:06.575Z,24.23
2022-08-29T19:33:52.893Z,24.20
2022-08-29T19:36:33.017Z,24.20
2022-08-29T19:39:19.875Z,24.17
2022-08-29T19:42:06.889Z,24.17
2022-08-29T19:44:56.453Z,24.12
2022-08-29T19:47:42.837Z,24.08
2022-08-29T19:50:24.859Z,24.05
2022-08-29T19:53:12.887Z,23.81
2022-08-29T19:55:53.517Z,23.78
2022-08-29T19:58:39.973Z,23.71
2022-08-29T20:01:20.427Z,23.74
2022-08-29T20:04:06.915Z,23.74
2022-08-29T20:06:47.410Z,23.86
2022-08-29T20:09:34.878Z,23.91
2022-08-29T20:12:15.273Z,23.94
2022-08-29T20:15:01.853Z,24.07
2022-08-29T20:17:43.353Z,24.05
2022-08-29T20:20:40.173Z,24.06
2022-08-29T20:23:26.863Z,24.09
2022-08-29T20:26:13.854Z,24.06
2022-08-29T20:29:01.103Z,24.04
2022-08-29T20:31:41.842Z,24.00
2022-08-29T20:34:28.864Z,23.92
2022-08-29T20:37:15.851Z,23.88
2022-08-29T20:39:56.298Z,23.88
2022-08-29T20:42:42.857Z,23.90
2022-08-29T20:45:24.159Z,23.79
2022-08-29T20:48:10.824Z,23.80
2022-08-29T20:51:01.694Z,23.66
2022-08-29T20:53:49.771Z,23.66
2022-08-29T20:56:36.823Z,23.67
2022-08-29T20:59:17.937Z,23.56
2022-08-29T21:02:05.844Z,23.55
2022-08-29T21:05:04.634Z,23.54
2022-08-29T21:07:51.810Z,23.49
2022-08-29T21:10:38.779Z,23.47
2022-08-29T21:13:26.746Z,23.39
2022-08-29T21:16:08.294Z,23.39
2022-08-29T21:18:57.775Z,23.35
2022-08-29T21:21:44.804Z,23.29
2022-08-29T21:24:26.570Z,23.27
2022-08-29T21:27:13.797Z,23.29
2022-08-29T21:29:57.277Z,23.21
2022-08-29T21:32:43.804Z,23.28
2022-08-29T21:35:30.848Z,23.18
2022-08-29T21:38:17.773Z,23.19
2022-08-29T21:40:58.785Z,23.11
2022-08-29T21:43:45.763Z,23.07
2022-08-29T21:46:38.811Z,23.01
2022-08-29T21:49:23.160Z,22.95
2022-08-29T21:52:09.758Z,22.86
2022-08-29T21:54:56.755Z,22.78
2022-08-29T21:57:58.766Z,22.74
2022-08-29T22:00:45.192Z,22.70
2022-08-29T22:03:31.762Z,22.71
2022-08-29T22:06:19.727Z,22.62
2022-08-29T22:09:07.975Z,22.61
2022-08-29T22:11:52.870Z,22.62
2022-08-29T22:14:58.735Z,22.50
2022-08-29T22:17:39.333Z,22.57
2022-08-29T22:20:26.732Z,22.59
2022-08-29T22:23:06.907Z,22.64
2022-08-29T22:25:53.715Z,22.64
2022-08-29T22:28:47.740Z,22.64
2022-08-29T22:31:34.735Z,22.64
2022-08-29T22:34:14.854Z,22.48
2022-08-29T22:37:02.697Z,22.44
2022-08-29T22:39:42.855Z,22.38
2022-08-29T22:42:30.695Z,22.34
2022-08-29T22:45:19.698Z,22.28
2022-08-29T22:48:06.700Z,22.16
2022-08-29T22:50:52.002Z,22.14
2022-08-29T22:53:45.690Z,22.20
2022-08-29T22:56:25.974Z,22.31
2022-08-29T22:59:13.705Z,22.38
2022-08-29T23:01:53.809Z,22.40
2022-08-29T23:04:42.664Z,22.48
2022-08-29T23:07:23.777Z,22.44
2022-08-29T23:10:12.677Z,22.03
2022-08-29T23:12:59.649Z,21.89
2022-08-29T23:15:40.153Z,21.84
2022-08-29T23:18:26.689Z,21.70
2022-08-29T23:21:13.626Z,21.80
2022-08-29T23:24:00.649Z,21.84
2022-08-29T23:26:49.648Z,21.92
2022-08-29T23:29:41.870Z,22.03
2022-08-29T23:32:22.339Z,22.11
2022-08-29T23:35:08.627Z,22.15
2022-08-29T23:37:55.650Z,22.09
2022-08-29T23:40:35.875Z,21.86
2022-08-29T23:43:23.679Z,21.99
2022-08-29T23:46:11.759Z,21.80
2022-08-29T23:48:52.077Z,21.66
2022-08-29T23:51:38.660Z,21.56
2022-08-29T23:54:25.646Z,21.63
2022-08-29T23:57:05.708Z,21.56
